Hlavní strana
METAR-TAF:

METAR-TAF

Letiště :

Kärdla, Estonsko

zeměpisná šířka: 58-59N, zeměpisná délka: 022-49E, výška: 5 m

Aktuální stav počasí

Zpráva byla vytvořena před 15 minutami, v 12:50 UTC
Západní vítr 6 kt, proměnlivý mezi jižním a severozápadním
Teplota 5°C
Vlhkost vzduchu 70%
Tlak 1020 hPa
Viditelnost 10 km a více
Žádná oblačnost pod 1500 m, nevyskytují se cumulonimby.

METAR: EEKA 011250Z 27006KT 180V320 CAVOK 05/00 Q1020

Čas: 15:05 (13:05 UTC)

Předpověď počasí

Zpráva byla vytvořena před 1 hodinou a 5 minutami, v 12:00 UTC
Předpověď platná od 01 v 13 UTC do 01 v 19 UTC
Západní vítr 12 kt s nárazy do 22 kt
Viditelnost 10 km a více
Žádná oblačnost pod 1500 m, nevyskytují se cumulonimby.
Pravděpodobnost 40% :
Dočasný
od 01 v 15 UTC do 01 v 19 UTC
Polojasno ve výšce 2500 ft, Cumulonimbus.

TAF: EEKA 011200Z 0113/0119 27012G22KT CAVOK PROB40 TEMPO 0115/0119 SCT025CB

Stav a předpovědi počasí z více než 4 000 letišť (zprávy METAR a TAF).

Červené a žluté tečky na mapě představují dostupné meteorologické stanice.

Když kurzor umístíte na tečku, zobrazí se název stanice.

Pak kliknutím zobrazíte stav a předpověď počasí.

Chcete-li změnit mapu, kliknutím na zelené tlačítko se znaménkem +mapu přiblížíte, kliknutím na zelené tlačítko se znaménkem – mapu oddálíte a kliknutím na zelené šipky přejdete na sousední mapy.


METAR-TAF: